Time;durP1;ratioP1;P1;durP2;ratioP2;P2;SDS_P1;SDS_P2;PMS_P1;PMS_P2;Temp;Humidity;BMP_temperature;BMP_pressure;BME280_temperature;BME280_humidity;BME280_pressure;Samples;Min_cycle;Max_cycle;Signal;HPM_P1;HPM_P2
2022/06/13 00:01:27;;;;;;;0.45;0.45;;;20.90;78.50;;;;;;4989783;28;20030;-61
2022/06/13 00:03:54;;;;;;;0.00;0.00;;;20.80;78.20;;;;;;4991201;28;20037;-60
2022/06/13 00:06:20;;;;;;;0.22;0.22;;;20.80;78.80;;;;;;4991205;28;20489;-60
2022/06/13 00:08:47;;;;;;;0.00;0.00;;;20.80;78.70;;;;;;4989767;28;20498;-60
2022/06/13 00:11:16;;;;;;;0.45;0.30;;;20.80;79.10;;;;;;4989631;28;20054;-61
2022/06/13 00:13:45;;;;;;;0.80;0.65;;;20.80;78.70;;;;;;4991213;28;20034;-61
2022/06/13 00:16:12;;;;;;;0.45;0.38;;;20.90;79.10;;;;;;4989733;28;20070;-61
2022/06/13 00:18:38;;;;;;;0.00;0.00;;;20.70;79.10;;;;;;4990383;28;20037;-61
2022/06/13 00:21:05;;;;;;;0.85;0.40;;;20.70;80.20;;;;;;4990753;28;20482;-61
2022/06/13 00:23:31;;;;;;;0.70;0.52;;;20.70;79.30;;;;;;4991004;28;20394;-61
2022/06/13 00:25:57;;;;;;;0.20;0.20;;;20.30;80.90;;;;;;4990800;28;20026;-61
2022/06/13 00:28:23;;;;;;;0.40;0.35;;;20.50;81.10;;;;;;4990994;28;20041;-61
2022/06/13 00:30:49;;;;;;;0.00;0.00;;;20.60;81.00;;;;;;4989323;28;20038;-61
2022/06/13 00:33:14;;;;;;;0.00;0.00;;;20.80;79.80;;;;;;4991310;28;20391;-61
2022/06/13 00:35:40;;;;;;;0.65;0.65;;;20.90;79.90;;;;;;4990975;28;20046;-61
2022/06/13 00:38:06;;;;;;;0.15;0.10;;;20.70;79.80;;;;;;4990823;28;20030;-60
2022/06/13 00:40:34;;;;;;;0.70;0.28;;;20.70;80.70;;;;;;4989791;28;20406;-61
2022/06/13 00:43:01;;;;;;;0.00;0.00;;;20.70;80.50;;;;;;4991085;28;20027;-61
2022/06/13 00:45:34;;;;;;;0.00;0.00;;;20.90;80.40;;;;;;4990718;28;20022;-60
2022/06/13 00:48:00;;;;;;;0.00;0.00;;;21.00;80.60;;;;;;4990863;28;20049;-61
2022/06/13 00:50:35;;;;;;;0.00;0.00;;;21.00;80.10;;;;;;4989962;28;20494;-60
2022/06/13 00:53:09;;;;;;;0.80;0.52;;;21.00;80.00;;;;;;4989434;28;20553;-61
2022/06/13 00:55:48;;;;;;;0.70;0.47;;;20.90;80.70;;;;;;4990836;28;20038;-61
2022/06/13 00:58:14;;;;;;;0.60;0.60;;;20.70;80.70;;;;;;4989436;28;20518;-60
2022/06/13 01:00:45;;;;;;;0.17;0.17;;;20.70;81.50;;;;;;4990011;28;20605;-61
2022/06/13 01:03:12;;;;;;;0.00;0.00;;;20.70;82.10;;;;;;4989214;28;20747;-60
2022/06/13 01:05:43;;;;;;;0.00;0.00;;;20.50;81.80;;;;;;4968958;28;20165;-60
2022/06/13 01:08:11;;;;;;;0.25;0.22;;;20.30;83.30;;;;;;4963578;28;20026;-60
2022/06/13 01:13:54;;;;;;;;;;;20.10;84.10;;;;;;4951562;29;20380;-61
2022/06/13 01:16:53;;;;;;;0.10;0.10;;;20.10;84.80;;;;;;4965345;28;19957;-61
2022/06/13 01:19:25;;;;;;;0.93;0.88;;;19.90;84.70;;;;;;4970905;28;20035;-60
2022/06/13 01:22:12;;;;;;;0.10;0.10;;;19.80;85.40;;;;;;4971015;28;20038;-61
2022/06/13 01:25:08;;;;;;;0.00;0.00;;;19.70;85.60;;;;;;4965934;28;20031;-60
2022/06/13 01:28:17;;;;;;;0.00;0.00;;;19.50;86.90;;;;;;4955458;28;20047;-61
2022/06/13 01:31:14;;;;;;;0.10;0.10;;;19.50;87.70;;;;;;4953694;29;20031;-60
2022/06/13 01:34:19;;;;;;;0.17;0.17;;;19.50;87.70;;;;;;4954926;28;20081;-60
2022/06/13 01:37:10;;;;;;;0.00;0.00;;;19.50;87.20;;;;;;4954854;28;20532;-60
2022/06/13 01:40:05;;;;;;;0.00;0.00;;;19.50;87.70;;;;;;4954537;28;20146;-60
2022/06/13 01:42:44;;;;;;;3.03;1.35;;;19.50;87.20;;;;;;4940559;29;20039;-60
2022/06/13 01:45:39;;;;;;;0.00;0.00;;;19.40;88.00;;;;;;4953696;29;20038;-60
2022/06/13 01:48:19;;;;;;;0.20;0.20;;;19.20;88.30;;;;;;4953882;29;20043;-60
2022/06/13 01:50:52;;;;;;;0.00;0.00;;;19.10;89.10;;;;;;4953986;29;20400;-61
2022/06/13 01:53:28;;;;;;;0.08;0.08;;;19.10;90.20;;;;;;4953386;29;20472;-61
2022/06/13 01:56:07;;;;;;;0.00;0.00;;;19.20;90.00;;;;;;4953366;29;20063;-61
2022/06/13 01:58:44;;;;;;;0.00;0.00;;;19.10;90.00;;;;;;4954048;29;20028;-59
2022/06/13 02:01:40;;;;;;;0.25;0.25;;;19.10;90.30;;;;;;4937705;29;20062;-62
2022/06/13 02:04:21;;;;;;;0.38;0.38;;;19.00;90.40;;;;;;4953617;29;20031;-61
2022/06/13 02:07:14;;;;;;;0.57;0.50;;;18.90;90.60;;;;;;4954978;28;20031;-61
2022/06/13 02:10:19;;;;;;;0.00;0.00;;;18.90;91.30;;;;;;4952384;29;20399;-61
2022/06/13 02:12:52;;;;;;;0.77;0.47;;;19.00;91.50;;;;;;4953491;29;20047;-60
2022/06/13 02:15:27;;;;;;;0.00;0.00;;;19.10;91.20;;;;;;4961956;28;20030;-60
2022/06/13 02:18:04;;;;;;;0.03;0.03;;;19.00;91.20;;;;;;4973551;28;20031;-61
2022/06/13 02:20:41;;;;;;;0.10;0.10;;;18.90;91.40;;;;;;4971606;28;20070;-60
2022/06/13 02:23:15;;;;;;;0.30;0.30;;;18.60;92.30;;;;;;4972241;28;20023;-61
2022/06/13 02:26:21;;;;;;;0.00;0.00;;;18.30;93.00;;;;;;4972281;28;20030;-61
2022/06/13 02:28:53;;;;;;;0.20;0.13;;;18.10;93.80;;;;;;4951894;28;20039;-61
2022/06/13 02:31:42;;;;;;;0.00;0.00;;;18.00;94.20;;;;;;4972620;28;20109;-60
2022/06/13 02:34:32;;;;;;;0.10;0.05;;;18.00;94.40;;;;;;4972136;28;20077;-60
2022/06/13 02:37:24;;;;;;;0.00;0.00;;;18.10;95.10;;;;;;4973137;28;20050;-61
2022/06/13 02:40:05;;;;;;;0.10;0.10;;;18.30;94.70;;;;;;4955849;28;20041;-61
2022/06/13 02:42:45;;;;;;;4.95;1.45;;;18.30;95.10;;;;;;4971839;28;20395;-60
2022/06/13 02:45:22;;;;;;;0.00;0.00;;;18.40;94.60;;;;;;4972049;28;20026;-60
2022/06/13 02:48:14;;;;;;;0.00;0.00;;;18.40;94.70;;;;;;4971962;28;20050;-60
2022/06/13 02:50:59;;;;;;;0.03;0.03;;;18.30;95.30;;;;;;4957120;28;20053;-60
2022/06/13 02:53:43;;;;;;;1.90;1.17;;;18.30;95.60;;;;;;4973043;28;20050;-61
2022/06/13 02:59:44;;;;;;;0.00;0.00;;;18.10;96.20;;;;;;4972170;28;20086;-61
2022/06/13 03:02:17;;;;;;;0.00;0.00;;;18.00;96.50;;;;;;4972846;28;20534;-61
2022/06/13 03:04:52;;;;;;;0.98;0.77;;;18.10;96.70;;;;;;4971610;28;20023;-59
2022/06/13 03:07:34;;;;;;;0.10;0.10;;;18.00;96.70;;;;;;4971904;28;20031;-60
2022/06/13 03:10:16;;;;;;;0.00;0.00;;;17.90;97.60;;;;;;4970620;28;20030;-60
2022/06/13 03:13:00;;;;;;;0.20;0.10;;;17.70;97.90;;;;;;4971230;28;20031;-60
2022/06/13 03:15:36;;;;;;;0.32;0.30;;;17.60;98.60;;;;;;4971475;28;20038;-60
2022/06/13 03:18:13;;;;;;;0.10;0.10;;;17.50;99.20;;;;;;4972752;28;20062;-60
2022/06/13 03:20:50;;;;;;;12.82;0.73;;;17.50;99.70;;;;;;4970782;28;20078;-60
2022/06/13 03:23:43;;;;;;;0.00;0.00;;;17.50;99.70;;;;;;4971150;28;20039;-60
2022/06/13 03:26:28;;;;;;;6.55;1.85;;;17.40;99.90;;;;;;4970612;28;20062;-60
2022/06/13 03:29:22;;;;;;;0.00;0.00;;;17.30;99.90;;;;;;4956625;28;20034;-61
2022/06/13 03:31:56;;;;;;;0.10;0.10;;;17.20;99.90;;;;;;4971511;28;20498;-62
2022/06/13 03:34:28;;;;;;;0.10;0.10;;;17.20;99.90;;;;;;4971100;28;20034;-60
2022/06/13 03:37:22;;;;;;;0.00;0.00;;;17.10;99.90;;;;;;4971105;28;20078;-61
2022/06/13 03:40:01;;;;;;;0.28;0.22;;;17.10;99.90;;;;;;4969792;28;20046;-60
2022/06/13 03:42:49;;;;;;;0.00;0.00;;;17.10;99.90;;;;;;4970740;28;20053;-60
2022/06/13 03:45:23;;;;;;;0.00;0.00;;;17.00;99.90;;;;;;4970903;28;20077;-60
2022/06/13 03:48:05;;;;;;;0.13;0.13;;;16.90;99.90;;;;;;4971237;28;20483;-60
2022/06/13 03:50:53;;;;;;;0.00;0.00;;;16.90;99.90;;;;;;4970242;28;20034;-60
2022/06/13 03:53:25;;;;;;;0.00;0.00;;;17.00;99.90;;;;;;4972416;28;20737;-60
2022/06/13 03:56:05;;;;;;;0.00;0.00;;;17.00;99.90;;;;;;4970442;28;20037;-60
2022/06/13 03:58:46;;;;;;;3.38;1.08;;;16.90;99.90;;;;;;4969195;28;20483;-60
2022/06/13 04:01:21;;;;;;;0.17;0.08;;;17.00;99.90;;;;;;4964243;28;20494;-63
2022/06/13 04:03:47;;;;;;;0.55;0.55;;;17.10;99.90;;;;;;4966511;28;20140;-63
2022/06/13 04:06:37;;;;;;;0.00;0.00;;;17.10;99.90;;;;;;4964000;28;20113;-62
2022/06/13 04:09:10;;;;;;;0.00;0.00;;;17.10;99.90;;;;;;4970279;28;20517;-63
2022/06/13 04:11:52;;;;;;;0.00;0.00;;;17.10;99.90;;;;;;4969754;28;20508;-63
2022/06/13 04:14:40;;;;;;;0.13;0.13;;;17.10;99.90;;;;;;4966160;28;20131;-62
2022/06/13 04:17:29;;;;;;;0.00;0.00;;;17.20;99.90;;;;;;4961726;28;20119;-62
2022/06/13 04:20:42;;;;;;;0.10;0.10;;;17.20;99.90;;;;;;4961996;28;20085;-63
2022/06/13 04:23:30;;;;;;;0.00;0.00;;;17.20;99.90;;;;;;4962482;28;20037;-62
2022/06/13 04:26:45;;;;;;;0.30;0.30;;;17.10;99.90;;;;;;4950969;29;20023;-62
2022/06/13 04:29:39;;;;;;;0.10;0.10;;;17.10;99.90;;;;;;4956092;28;20032;-62
2022/06/13 04:32:12;;;;;;;0.10;0.10;;;17.10;99.90;;;;;;4989403;28;20030;-63
2022/06/13 04:34:50;;;;;;;0.00;0.00;;;17.10;99.90;;;;;;4989519;28;20425;-62
2022/06/13 04:37:20;;;;;;;0.22;0.22;;;17.20;99.90;;;;;;4976912;28;20030;-63
2022/06/13 04:39:49;;;;;;;0.55;0.43;;;17.10;99.90;;;;;;4968612;28;20038;-63
2022/06/13 04:42:17;;;;;;;0.03;0.03;;;17.20;99.90;;;;;;4970020;28;20043;-63
2022/06/13 04:44:44;;;;;;;0.00;0.00;;;17.20;99.90;;;;;;4970140;28;20744;-63
2022/06/13 04:47:15;;;;;;;0.00;0.00;;;17.30;99.90;;;;;;4970162;28;20073;-63
2022/06/13 04:49:56;;;;;;;0.00;0.00;;;17.40;99.90;;;;;;4969347;28;20066;-66
2022/06/13 04:52:33;;;;;;;2.53;2.33;;;17.80;99.90;;;;;;4970342;28;20090;-77
2022/06/13 04:55:29;;;;;;;0.73;0.73;;;17.60;99.90;;;;;;4970525;28;20372;-67
2022/06/13 04:57:55;;;;;;;0.00;0.00;;;17.90;99.90;;;;;;4966459;28;20031;-70
2022/06/13 05:00:22;;;;;;;0.30;0.30;;;18.00;99.90;;;;;;4985264;28;20030;-69
2022/06/13 05:02:53;;;;;;;0.00;0.00;;;18.20;99.90;;;;;;4994112;28;20030;-70
2022/06/13 05:05:41;;;;;;;1.20;0.77;;;18.00;99.90;;;;;;4983640;28;20053;-70
2022/06/13 05:08:27;;;;;;;0.40;0.25;;;18.30;99.90;;;;;;4973886;28;20066;-69
2022/06/13 05:11:09;;;;;;;0.20;0.20;;;18.20;99.90;;;;;;4972175;28;20033;-69
2022/06/13 05:13:35;;;;;;;0.00;0.00;;;18.30;99.90;;;;;;4985214;28;20554;-70
2022/06/13 05:16:29;;;;;;;0.35;0.35;;;18.40;99.80;;;;;;4970215;28;20125;-69
2022/06/13 05:19:27;;;;;;;0.13;0.13;;;18.40;99.60;;;;;;4954591;28;20036;-70
2022/06/13 05:22:23;;;;;;;2.58;1.10;;;18.10;99.90;;;;;;4960066;28;20559;-69
2022/06/13 05:25:21;;;;;;;0.00;0.00;;;18.30;99.60;;;;;;4965207;28;20117;-70
2022/06/13 05:27:46;;;;;;;0.10;0.10;;;18.70;98.90;;;;;;4973200;28;20121;-70
2022/06/13 05:30:17;;;;;;;0.00;0.00;;;18.70;98.60;;;;;;4972767;28;20494;-70
2022/06/13 05:32:43;;;;;;;0.00;0.00;;;18.90;98.00;;;;;;4974467;28;20035;-69
2022/06/13 05:35:17;;;;;;;0.00;0.00;;;19.20;97.20;;;;;;4972786;28;20035;-69
2022/06/13 05:37:43;;;;;;;0.00;0.00;;;19.20;96.30;;;;;;4973186;28;20031;-72
2022/06/13 05:40:19;;;;;;;0.20;0.20;;;18.90;96.40;;;;;;4973232;28;20487;-70
2022/06/13 05:42:46;;;;;;;0.45;0.40;;;18.80;96.80;;;;;;4973036;28;20033;-70
2022/06/13 05:45:14;;;;;;;0.10;0.10;;;18.60;97.20;;;;;;4965854;28;20368;-69
2022/06/13 05:47:44;;;;;;;0.00;0.00;;;18.50;97.80;;;;;;4972766;28;20027;-69
2022/06/13 05:50:19;;;;;;;0.20;0.20;;;18.30;97.90;;;;;;4969710;28;20031;-69
2022/06/13 05:52:45;;;;;;;10.70;0.82;;;18.40;97.30;;;;;;4971125;28;20026;-69
2022/06/13 05:55:12;;;;;;;0.57;0.30;;;18.30;97.70;;;;;;4970601;28;20034;-69
2022/06/13 05:57:40;;;;;;;0.00;0.00;;;18.30;97.30;;;;;;4972033;28;20438;-69
2022/06/13 06:00:36;;;;;;;0.00;0.00;;;18.30;97.40;;;;;;4960711;28;20019;-69
2022/06/13 06:03:02;;;;;;;0.10;0.10;;;18.40;97.20;;;;;;4967820;28;20030;-69
2022/06/13 06:05:28;;;;;;;0.45;0.30;;;18.30;97.30;;;;;;4973339;28;20031;-69
2022/06/13 06:07:54;;;;;;;0.10;0.10;;;18.40;97.40;;;;;;4971884;28;20030;-69
2022/06/13 06:10:28;;;;;;;0.00;0.00;;;18.40;97.30;;;;;;4972205;28;20502;-69
2022/06/13 06:12:54;;;;;;;0.73;0.43;;;18.50;97.30;;;;;;4972757;28;20052;-71
2022/06/13 06:15:21;;;;;;;0.00;0.00;;;18.50;97.30;;;;;;4971673;28;20584;-70
2022/06/13 06:17:47;;;;;;;0.63;0.63;;;18.60;97.30;;;;;;4972706;28;20023;-70
2022/06/13 06:20:19;;;;;;;2.40;0.98;;;18.80;96.70;;;;;;4971215;28;20113;-70
2022/06/13 06:22:45;;;;;;;0.00;0.00;;;18.80;96.50;;;;;;4972294;28;20042;-70
2022/06/13 06:25:11;;;;;;;0.10;0.10;;;18.90;96.50;;;;;;4973055;28;20023;-67
2022/06/13 06:27:37;;;;;;;0.20;0.20;;;19.00;95.70;;;;;;4973385;28;20031;-69
2022/06/13 06:30:04;;;;;;;0.10;0.10;;;19.10;95.10;;;;;;4982169;28;20030;-70
2022/06/13 06:32:30;;;;;;;0.08;0.03;;;19.10;95.10;;;;;;4991020;28;20068;-71
2022/06/13 06:34:58;;;;;;;0.90;0.90;;;19.10;95.30;;;;;;4985378;28;20026;-70
2022/06/13 06:37:24;;;;;;;0.47;0.45;;;19.10;95.50;;;;;;4972932;28;20121;-69
2022/06/13 06:39:50;;;;;;;0.00;0.00;;;19.20;95.10;;;;;;4970930;28;20118;-69
2022/06/13 06:42:16;;;;;;;0.15;0.15;;;19.30;95.50;;;;;;4971767;28;20022;-69
2022/06/13 06:44:42;;;;;;;0.00;0.00;;;19.20;94.50;;;;;;4972261;28;20093;-69
2022/06/13 06:47:08;;;;;;;0.28;0.25;;;19.30;94.60;;;;;;4991365;28;20482;-69
2022/06/13 06:49:37;;;;;;;0.70;0.52;;;19.40;93.90;;;;;;4991824;28;20057;-69
2022/06/13 06:52:07;;;;;;;0.00;0.00;;;19.30;93.70;;;;;;4992300;28;20043;-68
2022/06/13 07:00:05;;;;;;;0.43;0.43;;;19.30;94.00;;;;;;4980379;28;20026;-68
2022/06/13 07:02:31;;;;;;;0.10;0.10;;;19.40;94.30;;;;;;4973188;28;20077;-69
2022/06/13 07:05:05;;;;;;;0.00;0.00;;;19.40;94.20;;;;;;4972374;28;20442;-69
2022/06/13 07:07:31;;;;;;;1.77;1.48;;;19.50;94.20;;;;;;4971605;28;20034;-69
2022/06/13 07:09:57;;;;;;;0.10;0.10;;;19.70;93.40;;;;;;4971121;28;20022;-69
2022/06/13 07:12:23;;;;;;;0.55;0.47;;;19.50;93.20;;;;;;4952891;28;20057;-69
2022/06/13 07:14:49;;;;;;;0.00;0.00;;;19.30;93.10;;;;;;4953152;28;20035;-69
2022/06/13 07:17:16;;;;;;;6.55;0.70;;;19.20;93.70;;;;;;4952245;29;20125;-70
2022/06/13 07:19:45;;;;;;;13.85;1.90;;;19.30;93.90;;;;;;4952433;28;20039;-70
2022/06/13 07:22:17;;;;;;;0.10;0.10;;;19.40;93.20;;;;;;4951293;28;20035;-70
2022/06/13 07:24:45;;;;;;;0.52;0.52;;;19.60;92.00;;;;;;4952861;28;20583;-69
2022/06/13 07:27:13;;;;;;;1.17;0.55;;;19.60;92.90;;;;;;4952081;29;20031;-69
2022/06/13 07:29:40;;;;;;;0.30;0.25;;;19.50;92.70;;;;;;4957512;28;20479;-69
2022/06/13 07:32:13;;;;;;;0.25;0.22;;;19.50;92.70;;;;;;4972298;28;20093;-70
2022/06/13 07:34:41;;;;;;;0.00;0.00;;;19.40;93.20;;;;;;4970975;28;20027;-70
2022/06/13 07:38:16;;;;;;;0.00;0.00;;;19.50;92.10;;;;;;4970634;28;20505;-70
2022/06/13 07:40:01;;;;;;;0.73;0.73;;;19.50;91.80;;;;;;4951886;28;20090;-70
2022/06/13 07:42:26;;;;;;;0.00;0.00;;;19.50;92.60;;;;;;4952715;29;20027;-70
2022/06/13 07:44:52;;;;;;;0.40;0.30;;;19.50;92.90;;;;;;4965091;28;20479;-70
2022/06/13 07:47:20;;;;;;;0.20;0.20;;;19.60;92.80;;;;;;4971582;28;20411;-70
2022/06/13 07:49:46;;;;;;;0.00;0.00;;;19.60;92.90;;;;;;4970610;28;20031;-69
2022/06/13 07:52:11;;;;;;;0.73;0.73;;;19.60;92.90;;;;;;4971627;28;20380;-70
2022/06/13 07:54:37;;;;;;;19.70;0.95;;;19.60;92.50;;;;;;4970280;28;20553;-70
2022/06/13 07:57:04;;;;;;;0.52;0.20;;;19.60;92.60;;;;;;4972024;28;20423;-70
2022/06/13 07:59:30;;;;;;;0.17;0.17;;;19.70;92.40;;;;;;4970608;28;20039;-69
2022/06/13 08:01:57;;;;;;;0.00;0.00;;;19.80;92.60;;;;;;4970218;28;20035;-70
2022/06/13 08:04:23;;;;;;;0.20;0.20;;;20.00;92.20;;;;;;4971569;28;20033;-70
2022/06/13 08:06:49;;;;;;;0.10;0.10;;;20.10;91.80;;;;;;4971614;28;20117;-70
2022/06/13 08:09:15;;;;;;;0.00;0.00;;;20.30;91.70;;;;;;4970832;28;20403;-70
2022/06/13 08:11:47;;;;;;;1.95;0.70;;;20.40;91.40;;;;;;4969810;28;20498;-70
2022/06/13 08:14:14;;;;;;;0.00;0.00;;;20.40;91.30;;;;;;4969808;28;20527;-70
2022/06/13 08:16:40;;;;;;;12.02;0.77;;;20.50;91.40;;;;;;4970783;28;20039;-70
2022/06/13 08:19:06;;;;;;;0.75;0.35;;;20.60;91.10;;;;;;4970705;28;20031;-70
2022/06/13 08:21:35;;;;;;;0.22;0.22;;;20.70;90.70;;;;;;4970427;28;20042;-70
2022/06/13 08:24:02;;;;;;;0.25;0.25;;;20.60;90.20;;;;;;4970112;28;20174;-71
2022/06/13 08:26:28;;;;;;;0.00;0.00;;;20.50;89.90;;;;;;4970610;28;20442;-70
2022/06/13 08:28:54;;;;;;;0.00;0.00;;;20.30;90.10;;;;;;4977829;23;20043;-71
2022/06/13 08:31:22;;;;;;;0.00;0.00;;;20.40;89.90;;;;;;4963295;28;20046;-69
2022/06/13 08:33:48;;;;;;;0.20;0.13;;;20.50;82.40;;;;;;4988449;28;20426;-71
2022/06/13 08:36:15;;;;;;;0.00;0.00;;;20.30;84.50;;;;;;4975012;28;20027;-69
2022/06/13 08:38:41;;;;;;;0.00;0.00;;;20.40;86.30;;;;;;4983750;28;20030;-70
2022/06/13 08:41:15;;;;;;;0.52;0.32;;;20.50;84.80;;;;;;4993690;28;20034;-70
2022/06/13 08:44:22;;;;;;;0.10;0.00;;;20.30;83.10;;;;;;4994611;28;20073;-69
2022/06/13 08:47:34;;;;;;;0.00;0.00;;;20.30;80.90;;;;;;4993673;28;20033;-69
2022/06/13 08:50:33;;;;;;;0.00;0.00;;;20.60;78.50;;;;;;4993786;28;20042;-69
2022/06/13 08:53:47;;;;;;;0.00;0.00;;;20.80;76.70;;;;;;4987077;28;20069;-69
2022/06/13 08:56:16;;;;;;;0.05;0.05;;;20.90;77.30;;;;;;4989074;28;20038;-69
2022/06/13 08:58:56;;;;;;;0.00;0.00;;;20.90;75.30;;;;;;4992381;28;20113;-69
2022/06/13 09:01:41;;;;;;;0.00;0.00;;;20.80;75.60;;;;;;4973540;28;20040;-69
2022/06/13 09:04:21;;;;;;;0.35;0.28;;;20.60;75.50;;;;;;4974802;28;20113;-69
2022/06/13 09:07:23;;;;;;;0.00;0.00;;;20.80;77.20;;;;;;4973580;28;20023;-69
2022/06/13 09:09:58;;;;;;;0.00;0.00;;;21.20;77.90;;;;;;4958146;28;20133;-70
2022/06/13 09:12:47;;;;;;;0.65;0.43;;;21.30;77.00;;;;;;4973401;28;20027;-70
2022/06/13 09:15:21;;;;;;;0.05;0.05;;;21.50;77.70;;;;;;4973373;28;20078;-69
2022/06/13 09:18:23;;;;;;;0.00;0.00;;;21.70;78.50;;;;;;4973947;28;20027;-70
2022/06/13 09:20:58;;;;;;;0.20;0.10;;;22.00;77.90;;;;;;4972930;28;20081;-70
2022/06/13 09:23:59;;;;;;;0.00;0.00;;;22.10;71.00;;;;;;4972959;28;20042;-68
2022/06/13 09:26:40;;;;;;;0.10;0.10;;;22.00;71.20;;;;;;4973443;28;20102;-70
2022/06/13 09:29:43;;;;;;;0.10;0.10;;;22.10;74.40;;;;;;4976620;28;20038;-69
2022/06/13 09:32:21;;;;;;;0.13;0.10;;;22.10;74.40;;;;;;5012275;28;20092;-69
2022/06/13 09:34:52;;;;;;;2.63;0.55;;;21.80;75.10;;;;;;5013441;28;20022;-68
2022/06/13 09:37:58;;;;;;;0.47;0.40;;;21.20;76.70;;;;;;5011877;28;20026;-69
2022/06/13 09:41:03;;;;;;;0.00;0.00;;;21.30;77.60;;;;;;5009914;28;20045;-69
2022/06/13 09:43:57;;;;;;;0.00;0.00;;;21.70;77.40;;;;;;5012981;28;20033;-69
2022/06/13 09:46:39;;;;;;;0.00;0.00;;;22.00;77.00;;;;;;5027491;28;20530;-70
2022/06/13 09:49:39;;;;;;;0.00;0.00;;;22.10;75.10;;;;;;5010574;28;20042;-69
2022/06/13 09:52:23;;;;;;;1.00;0.10;;;22.00;75.20;;;;;;5013175;28;20030;-69
2022/06/13 09:54:57;;;;;;;0.00;0.00;;;22.20;75.30;;;;;;5013282;28;20033;-69
2022/06/13 09:57:59;;;;;;;6.65;1.17;;;22.40;73.80;;;;;;5012691;28;20065;-69
2022/06/13 10:01:00;;;;;;;0.00;0.00;;;22.30;73.50;;;;;;5011982;28;20398;-69
2022/06/13 10:03:51;;;;;;;0.00;0.00;;;22.20;71.50;;;;;;5012307;28;20057;-70
2022/06/13 10:06:25;;;;;;;0.00;0.00;;;22.50;73.00;;;;;;5007818;28;20117;-70
2022/06/13 10:09:22;;;;;;;0.32;0.32;;;22.90;72.40;;;;;;4991852;28;20046;-69
2022/06/13 10:12:08;;;;;;;0.00;0.00;;;23.20;71.10;;;;;;4990281;28;20030;-69
2022/06/13 10:14:54;;;;;;;0.20;0.20;;;22.80;71.30;;;;;;4991616;28;20030;-69
2022/06/13 10:17:49;;;;;;;0.85;0.57;;;23.00;72.00;;;;;;4992130;28;20026;-69
2022/06/13 10:20:56;;;;;;;0.00;0.00;;;23.10;72.10;;;;;;4991323;28;20034;-70
2022/06/13 10:23:28;;;;;;;0.13;0.10;;;23.40;70.80;;;;;;4992945;28;20084;-70
2022/06/13 10:26:44;;;;;;;0.22;0.22;;;23.70;69.80;;;;;;4992733;28;20045;-69
2022/06/13 10:29:10;;;;;;;0.00;0.00;;;23.60;69.00;;;;;;4988992;28;20045;-70
2022/06/13 10:32:06;;;;;;;2.13;0.63;;;23.10;69.40;;;;;;5011915;28;20025;-70
2022/06/13 10:35:01;;;;;;;4.97;1.27;;;23.50;69.50;;;;;;5012049;28;20112;-70
2022/06/13 10:37:58;;;;;;;0.00;0.00;;;23.80;68.80;;;;;;5012036;28;20049;-70
2022/06/13 10:40:26;;;;;;;0.10;0.10;;;24.00;68.00;;;;;;5010238;28;20034;-69
2022/06/13 10:42:52;;;;;;;0.10;0.00;;;24.20;67.30;;;;;;4994522;28;20117;-72
2022/06/13 10:45:19;;;;;;;0.00;0.00;;;24.10;67.60;;;;;;5010246;28;20025;-70
2022/06/13 10:48:03;;;;;;;0.00;0.00;;;24.30;68.20;;;;;;5010538;28;20022;-70
2022/06/13 10:50:48;;;;;;;0.13;0.05;;;24.30;67.10;;;;;;4994017;28;20038;-70
2022/06/13 10:53:35;;;;;;;0.60;0.52;;;24.50;65.60;;;;;;5010468;28;20457;-70
2022/06/13 10:56:04;;;;;;;1.35;1.25;;;24.50;65.20;;;;;;5010401;28;20030;-71
2022/06/13 10:58:47;;;;;;;0.40;0.40;;;24.50;65.00;;;;;;5010304;28;20044;-69
2022/06/13 11:01:23;;;;;;;2.10;0.47;;;24.80;64.80;;;;;;4976737;28;20055;-70
2022/06/13 11:04:18;;;;;;;0.10;0.10;;;24.60;63.90;;;;;;4972776;28;20031;-70
2022/06/13 11:06:53;;;;;;;0.03;0.00;;;24.30;66.50;;;;;;4972610;28;20043;-70
2022/06/13 11:09:40;;;;;;;1.65;1.55;;;24.00;66.90;;;;;;4970297;28;20483;-71
2022/06/13 11:12:34;;;;;;;0.00;0.00;;;24.30;67.00;;;;;;4971020;28;20039;-70
2022/06/13 11:24:16;;;;;;;0.00;0.00;;;25.10;64.20;;;;;;4971436;28;20114;-70
2022/06/13 11:29:32;;;;;;;2.35;0.38;;;25.10;65.20;;;;;;4982640;28;20026;-70
2022/06/13 11:32:03;;;;;;;0.57;0.40;;;25.10;65.70;;;;;;5009636;28;20107;-70
2022/06/13 11:34:34;;;;;;;0.65;0.65;;;25.20;63.50;;;;;;5009553;28;20022;-70
2022/06/13 11:37:17;;;;;;;0.20;0.20;;;25.00;64.00;;;;;;5010913;28;20034;-69
2022/06/13 11:39:47;;;;;;;0.90;0.45;;;24.90;64.20;;;;;;5010274;28;20030;-69
2022/06/13 11:42:26;;;;;;;1.02;0.77;;;25.00;65.00;;;;;;5009718;28;20040;-69
2022/06/13 11:45:18;;;;;;;0.65;0.28;;;25.10;63.60;;;;;;5010901;28;20462;-69
2022/06/13 11:47:50;;;;;;;0.00;0.00;;;25.20;63.10;;;;;;5009849;28;20045;-69
2022/06/13 11:50:25;;;;;;;0.03;0.03;;;25.20;62.00;;;;;;5008890;28;20064;-69
2022/06/13 11:56:13;;;;;;;1.15;0.63;;;25.40;63.20;;;;;;5009584;28;20122;-70
2022/06/13 11:58:46;;;;;;;1.10;0.38;;;25.30;61.90;;;;;;5008072;28;20038;-69
2022/06/13 12:01:36;;;;;;;0.10;0.10;;;24.90;62.40;;;;;;4989847;28;20438;-69
2022/06/13 12:04:17;;;;;;;0.10;0.10;;;25.00;62.50;;;;;;4990622;28;20414;-69
2022/06/13 12:06:59;;;;;;;0.10;0.10;;;24.70;61.40;;;;;;4990121;28;20032;-68
2022/06/13 12:09:33;;;;;;;0.00;0.00;;;24.50;61.90;;;;;;4989777;28;20406;-69
2022/06/13 12:12:05;;;;;;;1.45;0.30;;;24.50;62.90;;;;;;4989573;28;20460;-69
2022/06/13 12:14:39;;;;;;;0.00;0.00;;;24.70;62.60;;;;;;4990804;28;20394;-69
2022/06/13 12:17:30;;;;;;;1.13;0.68;;;24.10;62.00;;;;;;4989280;28;20038;-69
2022/06/13 12:20:25;;;;;;;1.65;1.17;;;24.30;62.30;;;;;;4958609;28;20056;-68
2022/06/13 12:23:11;;;;;;;0.05;0.05;;;24.40;61.60;;;;;;4989938;28;20045;-69
2022/06/13 12:26:05;;;;;;;0.45;0.20;;;24.50;61.70;;;;;;4989903;28;20061;-69
2022/06/13 12:28:50;;;;;;;0.00;0.00;;;24.80;61.10;;;;;;4989205;28;20473;-70
2022/06/13 12:31:33;;;;;;;0.00;0.00;;;24.90;59.80;;;;;;4971261;28;20034;-70
2022/06/13 12:34:29;;;;;;;7.25;2.35;;;24.90;61.40;;;;;;4970158;28;20118;-70
2022/06/13 12:37:43;;;;;;;0.15;0.15;;;25.30;60.80;;;;;;4970253;28;20026;-71
2022/06/13 12:40:58;;;;;;;0.00;0.00;;;25.70;59.70;;;;;;4971349;28;20055;-70
2022/06/13 12:44:02;;;;;;;0.00;0.00;;;25.90;59.30;;;;;;4993572;28;20041;-71
2022/06/13 12:47:23;;;;;;;2.10;0.82;;;26.00;58.20;;;;;;5008579;28;20022;-70
2022/06/13 12:50:28;;;;;;;2.92;0.77;;;26.50;58.90;;;;;;5008615;28;20096;-69
2022/06/13 12:53:38;;;;;;;0.10;0.10;;;26.80;58.30;;;;;;5008821;28;20057;-69
2022/06/13 12:56:18;;;;;;;0.13;0.10;;;25.80;56.30;;;;;;5009444;28;20514;-69
2022/06/13 12:58:52;;;;;;;0.10;0.10;;;25.90;58.30;;;;;;5008304;28;20116;-70
2022/06/13 13:01:39;;;;;;;0.25;0.05;;;26.20;57.60;;;;;;5021940;28;20026;-70
2022/06/13 13:04:12;;;;;;;7.53;0.98;;;26.30;57.50;;;;;;4975442;28;20026;-69
2022/06/13 13:06:59;;;;;;;0.00;0.00;;;26.30;57.00;;;;;;4989019;28;20046;-70
2022/06/13 13:09:45;;;;;;;1.83;0.68;;;26.30;57.10;;;;;;4989829;28;20475;-69
2022/06/13 13:12:42;;;;;;;0.10;0.10;;;26.00;57.30;;;;;;4978618;28;20052;-69
2022/06/13 13:15:34;;;;;;;0.00;0.00;;;25.80;56.70;;;;;;4990105;28;20026;-69
2022/06/13 13:18:42;;;;;;;1.98;0.63;;;25.50;57.40;;;;;;4990118;28;20037;-69
2022/06/13 13:22:10;;;;;;;0.63;0.30;;;25.70;58.90;;;;;;4993165;28;20105;-69
2022/06/13 13:25:17;;;;;;;1.38;0.30;;;26.40;57.80;;;;;;4979028;28;20030;-70
2022/06/13 13:28:38;;;;;;;0.10;0.10;;;26.70;54.80;;;;;;4993669;28;20042;-69
2022/06/13 13:31:56;;;;;;;0.30;0.20;;;26.30;54.60;;;;;;5010525;28;20045;-69
2022/06/13 13:34:55;;;;;;;0.08;0.05;;;25.40;55.90;;;;;;5012411;28;20022;-70
2022/06/13 13:37:58;;;;;;;3.08;0.52;;;25.70;56.40;;;;;;5013214;28;20427;-70
2022/06/13 13:40:48;;;;;;;0.35;0.35;;;25.90;56.90;;;;;;5007770;28;20053;-70
2022/06/13 13:43:28;;;;;;;0.43;0.32;;;25.90;57.30;;;;;;5013272;28;20670;-70
2022/06/13 13:46:05;;;;;;;1.02;0.93;;;25.90;56.30;;;;;;5013905;28;20120;-69
2022/06/13 13:48:43;;;;;;;0.00;0.00;;;26.00;56.30;;;;;;5010283;28;20035;-69
2022/06/13 13:51:31;;;;;;;0.17;0.05;;;25.90;57.00;;;;;;5030438;28;20041;-69
2022/06/13 13:54:36;;;;;;;0.57;0.57;;;25.50;58.10;;;;;;5033016;28;20501;-69
2022/06/13 13:57:16;;;;;;;0.52;0.35;;;25.50;60.00;;;;;;5016567;28;20666;-68
2022/06/13 13:59:48;;;;;;;0.80;0.22;;;25.60;60.40;;;;;;5022869;28;20029;-69
2022/06/13 14:02:38;;;;;;;1.15;0.80;;;25.80;60.00;;;;;;5011394;28;20029;-69
2022/06/13 14:05:40;;;;;;;0.05;0.03;;;26.20;60.10;;;;;;5010383;28;20093;-68
2022/06/13 14:08:24;;;;;;;0.22;0.20;;;26.90;59.20;;;;;;5012530;28;20073;-69
2022/06/13 14:10:56;;;;;;;0.10;0.10;;;26.80;59.60;;;;;;5021053;28;20509;-69
2022/06/13 14:13:32;;;;;;;3.13;0.13;;;26.30;59.10;;;;;;5027268;28;20117;-69
2022/06/13 14:16:15;;;;;;;1.73;0.57;;;26.00;59.30;;;;;;5011387;28;20030;-69
2022/06/13 14:19:12;;;;;;;0.50;0.10;;;25.60;59.50;;;;;;5011802;28;20034;-69
2022/06/13 14:21:59;;;;;;;0.30;0.17;;;25.20;60.00;;;;;;5020402;28;20071;-70